Waukesha, WI (53186)

8:09 AM CDT on August 21, 2017 (GMT -0500)
Minooka Parkway Estates | | Change Station

Elev 830 ft 42.99 °N, 88.20 °W | Updated 1 second ago

Partly Cloudy
Partly Cloudy
70.0 °F
Feels Like 70.0 °F
N
0.0
Wind Variable Wind from NNW

Today
High -- | Low -- °F
--% Chance of Precip.
Yesterday
High -- | Low -- °F
Precip. -- in
Pressure 30.08 in
Visibility 5.0 miles
Clouds Clear
Dew Point 67 °F
Humidity 91%
Rainfall 0.00 in
Snow Depth Not available.
6:05 AM 7:45 PM
Waning Crescent, 0% visible
METAR KUES 211245Z 00000KT 5SM BR SKC 19/19 A3008
Pressure 30.08 in
Visibility 5.0 miles
Clouds Clear
Dew Point 67 °F
Humidity 91%
Rainfall 0.00 in
Snow Depth Not available.
6:05 AM 7:45 PM
Waning Crescent, 0% visible
METAR KUES 211245Z 00000KT 5SM BR SKC 19/19 A3008

Get Severe Weather Alerts

Thanks for signing up!

Be on the lookout for a verification email in your inbox.

You'll start receiving the daily forecast at 6 AM.

×

10-Day Weather Forecast

Almanac

Astronomy

Aug. 21, 2017 Rise Set
Actual Time
Civil Twilight
Nautical Twilight
Astronomical Twilight
Moon
Length of Visible Light
Length of Day
Tomorrow will be .
, % of the Moon is Illuminated

Today's Extremes

State Highs State Lows

Community

WunderPhotos

Category 6

Welcome to Category 6. This is the collective home for Weather Underground's featured writeups by Dr. Jeff Masters (right), Bob Henson (left), Chris Burt, and other regular contributors.

Nearby

Air Quality

  Air Quality AQ Index Pollutant
Not available.

Snow Depth

Station Depth Elevation

Earthquake Activity

City Distance Mag. Time & Date
Minimum magnitude displayed is 2.5.

Coastal Water Temperatures

Place Temperature

Stations

Nearby Weather Stations

Station Location Temp. Windchill Dew Point Humidity Wind Precip. Elev Updated Type
                   

Watches & Warnings

There are currently no watches in effect.